Main page
METAR-TAF:

METAR-TAF

Airports :

Aktion National Airport

Preveza, Greece

latitude: 38-37N, longitude: 020-46E, elevation: 4 m

Current weather observation

The report was made 13 minutes ago, at 07:50 UTC
Wind 14 kt from the East
Temperature 25°C
Humidity 41%
Pressure 1019 hPa
Visibility 10 km or more
Few clouds at a height of 2000 ft

METAR: LGPZ 150750Z 10014KT 9999 FEW020 25/11 Q1019 RMK FEW180 BLU

Time: 11:03 (08:03 UTC)

Forecast

The report was made 3 hours and 3 minutes ago, at 05:00 UTC
Forecast valid from 15 at 06 UTC to 16 at 06 UTC
Wind 12 kt from the East
Visibility 10 km or more
Few clouds at a height of 2000 ft
Temporary
from 15 at 12 UTC to 15 at 18 UTC
Wind 6 kt from the Southwest

TAF: LGPZ 150500Z 1506/1606 08012KT 9999 FEW020 TEMPO 1512/1518 22006KT

Weather observations and forecasts of more than 4000 airports (METAR and TAF reports).

The available stations are represented by yellow and red dots on the map.

Hover mouse over dot to see the name of the station.

Then click to see weather observations and forecasts.

To change the map : click on the green buttons with a black cross to zoom in, on the green button with a dash to zoom out, or on the green arrows for adjacent maps.


METAR-TAF: